| time (UTC) | temp F | wind direction | speed MPH | gust MPH | rain 1hr in | rain 24hr in | rain mn in | humidity % | barometer mb |
| 20260509212133 | 62 | 182 | 4.0 | 4.0 | 0.00 | 0.00 | 0.00 | 56 | 994.2 |
| 20260509210628 | 63 | 183 | 6.0 | 10.0 | 0.00 | 0.00 | 0.00 | 54 | 994.1 |
| 20260509205126 | 62 | 212 | 6.0 | 8.0 | 0.00 | 0.00 | 0.00 | 55 | 994.3 |
| 20260509203621 | 63 | 201 | 9.0 | 10.0 | 0.00 | 0.00 | 0.00 | 54 | 994.5 |
| 20260509202121 | 63 | 203 | 8.0 | 13.0 | 0.00 | 0.00 | 0.00 | 54 | 994.6 |
| 20260509200620 | 64 | 172 | 6.0 | 7.0 | 0.00 | 0.00 | 0.00 | 53 | 994.6 |
| 20260509195119 | 62 | 183 | 9.0 | 11.0 | 0.00 | 0.00 | 0.00 | 55 | 994.9 |
| 20260509193618 | 63 | 183 | 8.0 | 10.0 | 0.00 | 0.00 | 0.00 | 55 | 994.7 |
| 20260509192117 | 63 | 186 | 9.0 | 11.0 | 0.00 | 0.00 | 0.00 | 54 | 995.0 |
| 20260509190617 | 63 | 197 | 6.0 | 7.0 | 0.00 | 0.00 | 0.00 | 52 | 995.2 |
| 20260509185113 | 64 | 218 | 9.0 | 9.0 | 0.00 | 0.00 | 0.00 | 46 | 995.5 |
| 20260509183609 | 65 | 201 | 9.0 | 9.0 | 0.00 | 0.00 | 0.00 | 46 | 995.6 |
| 20260509182104 | 64 | 210 | 6.0 | 7.0 | 0.00 | 0.00 | 0.00 | 47 | 995.5 |
| 20260509180602 | 65 | 171 | 9.0 | 13.0 | 0.00 | 0.00 | 0.00 | 44 | 995.5 |
| 20260509175058 | 64 | 181 | 4.0 | 4.0 | 0.00 | 0.00 | 0.00 | 46 | 995.6 |
| 20260509173555 | 64 | 202 | 6.0 | 8.0 | 0.00 | 0.00 | 0.00 | 49 | 995.8 |
| 20260509172050 | 62 | 195 | 7.0 | 8.0 | 0.00 | 0.00 | 0.00 | 50 | 996.1 |
| 20260509170550 | 62 | 199 | 9.0 | 9.0 | 0.00 | 0.00 | 0.00 | 50 | 996.3 |
| 20260509165046 | 62 | 212 | 8.0 | 11.0 | 0.00 | 0.00 | 0.00 | 52 | 996.5 |
| 20260509163542 | 61 | 172 | 3.0 | 3.0 | 0.00 | 0.00 | 0.00 | 53 | 996.4 |
| 20260509162042 | 61 | 209 | 7.0 | 8.0 | 0.00 | 0.00 | 0.00 | 52 | 996.6 |
| 20260509160541 | 62 | 232 | 12.0 | 15.0 | 0.00 | 0.00 | 0.00 | 49 | 997.0 |
| 20260509155040 | 62 | 209 | 6.0 | 7.0 | 0.00 | 0.00 | 0.00 | 51 | 997.1 |
| 20260509153537 | 62 | 171 | 6.0 | 8.0 | 0.00 | 0.00 | 0.00 | 50 | 997.1 |
| 20260509152033 | 62 | 190 | 7.0 | 9.0 | 0.00 | 0.00 | 0.00 | 45 | 997.5 |
| 20260509150530 | 62 | 207 | 3.0 | 3.0 | 0.00 | 0.00 | 0.00 | 46 | 997.5 |
| 20260509145031 | 61 | 149 | 5.0 | 7.0 | 0.00 | 0.00 | 0.00 | 49 | 997.6 |
| 20260509143528 | 61 | 215 | 6.0 | 7.0 | 0.00 | 0.00 | 0.00 | 48 | 997.7 |
| 20260509142028 | 61 | 164 | 4.0 | 4.0 | 0.00 | 0.00 | 0.00 | 45 | 997.8 |
| 20260509140524 | 60 | 197 | 5.0 | 6.0 | 0.00 | 0.00 | 0.00 | 50 | 997.7 |
| 20260509135023 | 60 | 172 | 5.0 | 7.0 | 0.00 | 0.00 | 0.00 | 51 | 998.0 |
| 20260509133519 | 58 | 157 | 4.0 | 4.0 | 0.00 | 0.00 | 0.00 | 50 | 998.1 |
| 20260509132020 | 59 | 156 | 6.0 | 9.0 | 0.00 | 0.00 | 0.00 | 46 | 998.2 |
| 20260509130519 | 58 | 135 | 7.0 | 9.0 | 0.00 | 0.00 | 0.00 | 45 | 998.2 |
| 20260509125015 | 56 | 175 | 3.0 | 4.0 | 0.00 | 0.00 | 0.00 | 44 | 998.3 |
| 20260509123513 | 56 | 166 | 7.0 | 9.0 | 0.00 | 0.00 | 0.00 | 41 | 998.4 |
| 20260509122009 | 55 | 150 | 4.0 | 4.0 | 0.00 | 0.00 | 0.00 | 42 | 998.5 |
| 20260509120507 | 53 | 131 | 2.0 | 3.0 | 0.00 | 0.00 | 0.00 | 46 | 998.7 |
| 20260509115005 | 53 | 125 | 1.0 | 1.0 | 0.00 | 0.00 | 0.00 | 50 | 998.7 |
| 20260509113505 | 51 | 135 | 1.0 | 1.0 | 0.00 | 0.00 | 0.00 | 49 | 998.6 |
| 20260509112001 | 48 | 145 | 2.0 | 2.0 | 0.00 | 0.00 | 0.00 | 52 | 998.9 |
| 20260509110458 | 45 | 121 | 1.0 | 1.0 | 0.00 | 0.00 | 0.00 | 56 | 998.6 |
| 20260509104957 | 42 | 142 | 1.0 | 1.0 | 0.00 | 0.00 | 0.00 | 61 | 998.7 |
| 20260509103454 | 40 | 143 | 1.0 | 1.0 | 0.00 | 0.00 | 0.00 | 63 | 998.4 |
| 20260509101951 | 39 | 145 | 1.0 | 1.0 | 0.00 | 0.00 | 0.00 | 64 | 998.6 |
| 20260509100448 | 39 | 142 | 0.0 | 0.0 | 0.00 | 0.00 | 0.00 | 63 | 998.4 |
| 20260509094944 | 40 | 145 | 1.0 | 1.0 | 0.00 | 0.00 | 0.00 | 61 | 998.6 |
| 20260509093442 | 40 | 147 | 2.0 | 2.0 | 0.00 | 0.00 | 0.00 | 60 | 998.5 |
| 20260509091942 | 40 | 151 | 2.0 | 1.0 | 0.00 | 0.00 | 0.00 | 60 | 998.8 |
| 20260509090438 | 40 | 153 | 2.0 | 2.0 | 0.00 | 0.00 | 0.00 | 60 | 998.8 |
| 20260509084934 | 40 | 152 | 2.0 | 2.0 | 0.00 | 0.00 | 0.00 | 59 | 998.9 |
| 20260509083432 | 40 | 154 | 2.0 | 2.0 | 0.00 | 0.00 | 0.00 | 60 | 998.9 |
| 20260509081929 | 40 | 156 | 2.0 | 2.0 | 0.00 | 0.00 | 0.00 | 60 | 999.1 |
| 20260509080427 | 40 | 152 | 1.0 | 1.0 | 0.00 | 0.00 | 0.00 | 60 | 999.1 |
| 20260509074925 | 40 | 166 | 3.0 | 3.0 | 0.00 | 0.00 | 0.00 | 59 | 999.3 |
| 20260509073421 | 39 | 162 | 2.0 | 2.0 | 0.00 | 0.00 | 0.00 | 59 | 999.2 |
| 20260509071916 | 40 | 155 | 2.0 | 2.0 | 0.00 | 0.00 | 0.00 | 58 | 999.5 |
| 20260509070413 | 39 | 149 | 2.0 | 2.0 | 0.00 | 0.00 | 0.00 | 59 | 999.3 |
| 20260509064913 | 39 | 158 | 2.0 | 2.0 | 0.00 | 0.00 | 0.00 | 61 | 999.3 |
| 20260509063409 | 40 | 145 | 1.0 | 1.0 | 0.00 | 0.00 | 0.00 | 59 | 999.5 |
| 20260509061907 | 39 | 152 | 2.0 | 2.0 | 0.00 | 0.00 | 0.00 | 60 | 999.6 |
| 20260509060404 | 39 | 154 | 1.0 | 1.0 | 0.00 | 0.00 | 0.00 | 61 | 999.6 |
| 20260509054904 | 39 | 157 | 2.0 | 2.0 | 0.00 | 0.00 | 0.00 | 59 | 999.9 |
| 20260509053402 | 40 | 159 | 2.0 | 2.0 | 0.00 | 0.00 | 0.00 | 57 | 1000.0 |
| 20260509051900 | 40 | 160 | 2.0 | 2.0 | 0.00 | 0.00 | 0.00 | 57 | 999.9 |
| 20260509050357 | 40 | 153 | 2.0 | 2.0 | 0.00 | 0.00 | 0.00 | 57 | 1000.3 |
| 20260509044854 | 39 | 159 | 2.0 | 2.0 | 0.00 | 0.00 | 0.00 | 58 | 1000.4 |
| 20260509043350 | 39 | 160 | 2.0 | 2.0 | 0.00 | 0.00 | 0.00 | 57 | 1000.5 |
| 20260509041845 | 39 | 158 | 2.0 | 2.0 | 0.00 | 0.00 | 0.00 | 58 | 1000.4 |
| 20260509040344 | 39 | 162 | 2.0 | 2.0 | 0.00 | 0.00 | 0.00 | 58 | 1000.2 |
| 20260509034840 | 39 | 161 | 2.0 | 2.0 | 0.00 | 0.00 | 0.00 | 58 | 1000.2 |
| 20260509033338 | 39 | 166 | 2.0 | 2.0 | 0.00 | 0.00 | 0.00 | 60 | 1000.1 |
| 20260509031835 | 39 | 156 | 2.0 | 2.0 | 0.00 | 0.00 | 0.00 | 62 | 1000.4 |
| 20260509030333 | 40 | 164 | 3.0 | 3.0 | 0.00 | 0.00 | 0.00 | 62 | 1000.6 |
| 20260509024833 | 39 | 161 | 2.0 | 2.0 | 0.00 | 0.00 | 0.00 | 66 | 1000.7 |
| 20260509023330 | 40 | 163 | 3.0 | 3.0 | 0.00 | 0.00 | 0.00 | 64 | 1000.8 |
| 20260509021826 | 41 | 161 | 3.0 | 3.0 | 0.00 | 0.00 | 0.00 | 61 | 1000.7 |
| 20260509020325 | 42 | 161 | 2.0 | 2.0 | 0.00 | 0.00 | 0.00 | 59 | 1000.9 |
| 20260509014822 | 42 | 156 | 2.0 | 2.0 | 0.00 | 0.00 | 0.00 | 58 | 1000.8 |
| 20260509013318 | 43 | 159 | 2.0 | 2.0 | 0.00 | 0.00 | 0.00 | 57 | 1000.4 |
| 20260509011814 | 42 | 150 | 1.0 | 1.0 | 0.00 | 0.00 | 0.00 | 57 | 1000.5 |
| 20260509010312 | 42 | 147 | 1.0 | 1.0 | 0.00 | 0.00 | 0.00 | 57 | 1000.2 |
| 20260509004807 | 42 | 140 | 1.0 | 1.0 | 0.00 | 0.00 | 0.00 | 58 | 1000.0 |
| 20260509003305 | 44 | 150 | 1.0 | 1.0 | 0.00 | 0.00 | 0.00 | 55 | 999.8 |
| 20260509001803 | 46 | 152 | 1.0 | 1.0 | 0.00 | 0.00 | 0.00 | 51 | 1000.1 |
| 20260509000300 | 47 | 166 | 2.0 | 2.0 | 0.00 | 0.00 | 0.00 | 49 | 1000.0 |
| 20260508234756 | 49 | 181 | 4.0 | 4.0 | 0.00 | 0.00 | 0.00 | 46 | 999.8 |
| 20260508233256 | 50 | 190 | 6.0 | 7.0 | 0.00 | 0.00 | 0.00 | 46 | 999.7 |
| 20260508231753 | 50 | 189 | 2.0 | 2.0 | 0.00 | 0.00 | 0.00 | 47 | 999.7 |
| 20260508230253 | 50 | 190 | 4.0 | 6.0 | 0.00 | 0.00 | 0.00 | 46 | 999.9 |
| 20260508224751 | 51 | 245 | 10.0 | 10.0 | 0.00 | 0.00 | 0.00 | 43 | 999.8 |
| 20260508223249 | 51 | 220 | 5.0 | 6.0 | 0.00 | 0.00 | 0.00 | 44 | 1000.1 |
| 20260508221745 | 51 | 180 | 9.0 | 10.0 | 0.00 | 0.00 | 0.00 | 40 | 999.7 |
| 20260508220240 | 51 | 251 | 10.0 | 11.0 | 0.00 | 0.00 | 0.00 | 41 | 999.9 |
| 20260508214736 | 51 | 261 | 9.0 | 11.0 | 0.00 | 0.00 | 0.00 | 42 | 1000.0 |
| 20260508213232 | 51 | 239 | 9.0 | 11.0 | 0.00 | 0.00 | 0.00 | 40 | 1000.2 |